sensor_id;sensor_type;location;lat;lon;timestamp;pressure;altitude;pressure_sealevel;temperature;humidity
76627;BME280;65519;53.230;10.390;2023-09-19T00:02:01;100076.84;;;16.79;89.24
76627;BME280;65519;53.230;10.390;2023-09-19T00:04:31;100076.53;;;16.81;89.79
76627;BME280;65519;53.230;10.390;2023-09-19T00:06:58;100084.63;;;16.69;90.23
76627;BME280;65519;53.230;10.390;2023-09-19T00:09:23;100076.03;;;16.79;89.69
76627;BME280;65519;53.230;10.390;2023-09-19T00:11:52;100077.47;;;16.76;89.99
76627;BME280;65519;53.230;10.390;2023-09-19T00:14:18;100082.34;;;16.71;90.21
76627;BME280;65519;53.230;10.390;2023-09-19T00:16:43;100081.88;;;16.69;90.24
76627;BME280;65519;53.230;10.390;2023-09-19T00:19:09;100082.69;;;16.69;90.49
76627;BME280;65519;53.230;10.390;2023-09-19T00:21:35;100088.38;;;16.64;90.89
76627;BME280;65519;53.230;10.390;2023-09-19T00:24:04;100086.38;;;16.56;91.28
76627;BME280;65519;53.230;10.390;2023-09-19T00:26:32;100082.38;;;16.62;91.51
76627;BME280;65519;53.230;10.390;2023-09-19T00:28:57;100078.28;;;16.51;91.36
76627;BME280;65519;53.230;10.390;2023-09-19T00:31:24;100080.22;;;16.51;91.89
76627;BME280;65519;53.230;10.390;2023-09-19T00:33:50;100075.84;;;16.50;91.71
76627;BME280;65519;53.230;10.390;2023-09-19T00:36:16;100082.97;;;16.42;92.13
76627;BME280;65519;53.230;10.390;2023-09-19T00:38:43;100100.13;;;16.48;92.43
76627;BME280;65519;53.230;10.390;2023-09-19T00:41:10;100089.94;;;16.48;92.10
76627;BME280;65519;53.230;10.390;2023-09-19T00:43:38;100101.56;;;16.45;92.48
76627;BME280;65519;53.230;10.390;2023-09-19T00:46:05;100100.63;;;16.50;91.97
76627;BME280;65519;53.230;10.390;2023-09-19T00:48:31;100100.94;;;16.48;92.06
76627;BME280;65519;53.230;10.390;2023-09-19T00:51:04;100095.94;;;16.50;92.04
76627;BME280;65519;53.230;10.390;2023-09-19T00:53:30;100089.78;;;16.53;91.83
76627;BME280;65519;53.230;10.390;2023-09-19T00:55:56;100088.47;;;16.51;91.60
76627;BME280;65519;53.230;10.390;2023-09-19T00:58:22;100095.28;;;16.53;91.61
76627;BME280;65519;53.230;10.390;2023-09-19T01:00:50;100080.88;;;16.48;91.90
76627;BME280;65519;53.230;10.390;2023-09-19T01:03:18;100092.69;;;16.48;92.19
76627;BME280;65519;53.230;10.390;2023-09-19T01:05:44;100103.69;;;16.48;92.09
76627;BME280;65519;53.230;10.390;2023-09-19T01:08:10;100099.00;;;16.49;92.09
76627;BME280;65519;53.230;10.390;2023-09-19T01:10:45;100103.38;;;16.58;91.18
76627;BME280;65519;53.230;10.390;2023-09-19T01:15:47;100108.56;;;16.51;91.66
76627;BME280;65519;53.230;10.390;2023-09-19T01:21:29;100111.44;;;16.46;92.45
76627;BME280;65519;53.230;10.390;2023-09-19T01:29:49;100107.25;;;16.49;91.54
76627;BME280;65519;53.230;10.390;2023-09-19T01:32:19;100119.06;;;16.58;91.16
76627;BME280;65519;53.230;10.390;2023-09-19T01:34:52;100122.00;;;16.53;90.49
76627;BME280;65519;53.230;10.390;2023-09-19T01:37:19;100122.81;;;16.53;89.85
76627;BME280;65519;53.230;10.390;2023-09-19T01:40:00;100117.63;;;16.52;90.56
76627;BME280;65519;53.230;10.390;2023-09-19T01:42:57;100120.50;;;16.55;90.17
76627;BME280;65519;53.230;10.390;2023-09-19T01:51:06;100116.31;;;16.58;89.67
76627;BME280;65519;53.230;10.390;2023-09-19T01:53:55;100120.50;;;16.55;89.81
76627;BME280;65519;53.230;10.390;2023-09-19T01:57:03;100115.69;;;16.52;89.90
76627;BME280;65519;53.230;10.390;2023-09-19T01:59:38;100127.50;;;16.53;89.82
76627;BME280;65519;53.230;10.390;2023-09-19T02:02:06;100132.81;;;16.49;89.58
76627;BME280;65519;53.230;10.390;2023-09-19T02:04:34;100131.19;;;16.48;89.34
76627;BME280;65519;53.230;10.390;2023-09-19T02:07:02;100122.31;;;16.51;89.58
76627;BME280;65519;53.230;10.390;2023-09-19T02:09:28;100133.13;;;16.48;89.27
76627;BME280;65519;53.230;10.390;2023-09-19T02:11:53;100141.22;;;16.44;89.26
76627;BME280;65519;53.230;10.390;2023-09-19T02:14:21;100129.44;;;16.43;89.26
76627;BME280;65519;53.230;10.390;2023-09-19T02:16:47;100136.69;;;16.39;89.51
76627;BME280;65519;53.230;10.390;2023-09-19T02:19:15;100133.13;;;16.39;88.89
76627;BME280;65519;53.230;10.390;2023-09-19T02:21:40;100143.81;;;16.40;88.89
76627;BME280;65519;53.230;10.390;2023-09-19T02:24:06;100143.31;;;16.38;89.10
76627;BME280;65519;53.230;10.390;2023-09-19T02:26:33;100143.66;;;16.37;89.67
76627;BME280;65519;53.230;10.390;2023-09-19T02:29:01;100152.53;;;16.34;89.34
76627;BME280;65519;53.230;10.390;2023-09-19T02:31:28;100159.66;;;16.35;89.36
76627;BME280;65519;53.230;10.390;2023-09-19T02:33:54;100155.75;;;16.27;89.51
76627;BME280;65519;53.230;10.390;2023-09-19T02:36:21;100154.31;;;16.30;89.26
76627;BME280;65519;53.230;10.390;2023-09-19T02:38:46;100152.19;;;16.27;89.33
76627;BME280;65519;53.230;10.390;2023-09-19T02:41:12;100171.13;;;16.28;88.94
76627;BME280;65519;53.230;10.390;2023-09-19T02:43:37;100163.06;;;16.32;88.56
76627;BME280;65519;53.230;10.390;2023-09-19T02:46:03;100168.88;;;16.30;88.62
76627;BME280;65519;53.230;10.390;2023-09-19T02:48:28;100171.31;;;16.32;87.94
76627;BME280;65519;53.230;10.390;2023-09-19T02:50:54;100165.47;;;16.33;88.11
76627;BME280;65519;53.230;10.390;2023-09-19T02:53:20;100171.16;;;16.37;87.48
76627;BME280;65519;53.230;10.390;2023-09-19T02:55:47;100177.78;;;16.36;87.87
76627;BME280;65519;53.230;10.390;2023-09-19T02:58:13;100163.88;;;16.41;87.66
76627;BME280;65519;53.230;10.390;2023-09-19T03:00:40;100169.84;;;16.34;87.25
76627;BME280;65519;53.230;10.390;2023-09-19T03:03:08;100162.91;;;16.37;87.23
76627;BME280;65519;53.230;10.390;2023-09-19T03:05:34;100162.91;;;16.37;86.40
76627;BME280;65519;53.230;10.390;2023-09-19T03:08:00;100156.06;;;16.26;86.54
76627;BME280;65519;53.230;10.390;2023-09-19T03:10:26;100164.19;;;16.31;85.73
76627;BME280;65519;53.230;10.390;2023-09-19T03:12:54;100158.19;;;16.29;86.08
76627;BME280;65519;53.230;10.390;2023-09-19T03:15:20;100152.38;;;16.30;85.48
76627;BME280;65519;53.230;10.390;2023-09-19T03:17:49;100157.06;;;16.30;85.55
76627;BME280;65519;53.230;10.390;2023-09-19T03:20:19;100165.31;;;16.21;85.54
76627;BME280;65519;53.230;10.390;2023-09-19T03:22:47;100175.00;;;16.27;84.44
76627;BME280;65519;53.230;10.390;2023-09-19T03:25:14;100162.56;;;16.30;83.15
76627;BME280;65519;53.230;10.390;2023-09-19T03:27:43;100175.19;;;16.22;82.69
76627;BME280;65519;53.230;10.390;2023-09-19T03:30:09;100175.63;;;16.24;81.36
76627;BME280;65519;53.230;10.390;2023-09-19T03:32:48;100185.03;;;16.23;80.54
76627;BME280;65519;53.230;10.390;2023-09-19T03:35:17;100181.97;;;16.25;79.50
76627;BME280;65519;53.230;10.390;2023-09-19T03:37:42;100182.13;;;16.20;78.60
76627;BME280;65519;53.230;10.390;2023-09-19T03:40:09;100187.13;;;16.18;77.45
76627;BME280;65519;53.230;10.390;2023-09-19T03:42:39;100189.69;;;16.14;77.43
76627;BME280;65519;53.230;10.390;2023-09-19T03:45:07;100198.22;;;16.04;76.96
76627;BME280;65519;53.230;10.390;2023-09-19T03:47:36;100192.06;;;15.98;76.95
76627;BME280;65519;53.230;10.390;2023-09-19T03:50:03;100193.00;;;15.94;76.79
76627;BME280;65519;53.230;10.390;2023-09-19T03:52:29;100188.00;;;15.96;76.74
76627;BME280;65519;53.230;10.390;2023-09-19T03:54:54;100192.03;;;15.90;77.28
76627;BME280;65519;53.230;10.390;2023-09-19T03:57:20;100184.13;;;15.97;77.76
76627;BME280;65519;53.230;10.390;2023-09-19T03:59:46;100191.97;;;15.81;79.39
76627;BME280;65519;53.230;10.390;2023-09-19T04:02:13;100194.69;;;15.73;80.48
76627;BME280;65519;53.230;10.390;2023-09-19T04:04:49;100198.25;;;15.73;80.71
76627;BME280;65519;53.230;10.390;2023-09-19T04:07:14;100205.16;;;15.70;81.48
76627;BME280;65519;53.230;10.390;2023-09-19T04:09:40;100204.34;;;15.70;82.66
76627;BME280;65519;53.230;10.390;2023-09-19T04:12:07;100202.72;;;15.69;83.31
76627;BME280;65519;53.230;10.390;2023-09-19T04:14:34;100202.41;;;15.70;83.61
76627;BME280;65519;53.230;10.390;2023-09-19T04:16:59;100211.13;;;15.64;84.03
76627;BME280;65519;53.230;10.390;2023-09-19T04:19:26;100218.09;;;15.70;82.73
76627;BME280;65519;53.230;10.390;2023-09-19T04:21:51;100226.34;;;15.70;82.90
76627;BME280;65519;53.230;10.390;2023-09-19T04:24:17;100227.34;;;15.74;82.95
76627;BME280;65519;53.230;10.390;2023-09-19T04:26:45;100224.34;;;15.62;83.54
76627;BME280;65519;53.230;10.390;2023-09-19T04:29:10;100231.97;;;15.65;83.73
76627;BME280;65519;53.230;10.390;2023-09-19T04:31:36;100240.47;;;15.55;83.57
76627;BME280;65519;53.230;10.390;2023-09-19T04:34:03;100250.94;;;15.53;83.93
76627;BME280;65519;53.230;10.390;2023-09-19T04:36:28;100247.97;;;15.63;84.25
76627;BME280;65519;53.230;10.390;2023-09-19T04:38:55;100252.97;;;15.61;82.81
76627;BME280;65519;53.230;10.390;2023-09-19T04:41:20;100252.06;;;15.52;81.97
76627;BME280;65519;53.230;10.390;2023-09-19T04:43:47;100264.56;;;15.58;82.23
76627;BME280;65519;53.230;10.390;2023-09-19T04:46:15;100271.75;;;15.45;80.35
76627;BME280;65519;53.230;10.390;2023-09-19T04:48:40;100265.28;;;15.50;80.32
76627;BME280;65519;53.230;10.390;2023-09-19T04:51:06;100266.56;;;15.44;81.04
76627;BME280;65519;53.230;10.390;2023-09-19T04:53:32;100269.00;;;15.45;79.48
76627;BME280;65519;53.230;10.390;2023-09-19T04:55:57;100285.34;;;15.50;79.86
76627;BME280;65519;53.230;10.390;2023-09-19T04:58:23;100279.41;;;15.34;79.88
76627;BME280;65519;53.230;10.390;2023-09-19T05:00:48;100272.09;;;15.30;80.21
76627;BME280;65519;53.230;10.390;2023-09-19T05:03:17;100279.72;;;15.33;80.38
76627;BME280;65519;53.230;10.390;2023-09-19T05:05:42;100266.16;;;15.37;80.50
76627;BME280;65519;53.230;10.390;2023-09-19T05:08:08;100276.97;;;15.33;80.69
76627;BME280;65519;53.230;10.390;2023-09-19T05:10:35;100283.22;;;15.25;80.79
76627;BME280;65519;53.230;10.390;2023-09-19T05:13:04;100279.75;;;15.19;80.76
76627;BME280;65519;53.230;10.390;2023-09-19T05:15:30;100287.47;;;15.17;80.68
76627;BME280;65519;53.230;10.390;2023-09-19T05:17:55;100288.81;;;15.20;80.76
76627;BME280;65519;53.230;10.390;2023-09-19T05:20:21;100286.97;;;15.15;81.23
76627;BME280;65519;53.230;10.390;2023-09-19T05:23:03;100291.03;;;15.18;80.83
76627;BME280;65519;53.230;10.390;2023-09-19T05:25:34;100291.84;;;15.18;81.74
76627;BME280;65519;53.230;10.390;2023-09-19T05:28:08;100299.56;;;15.16;81.88
76627;BME280;65519;53.230;10.390;2023-09-19T05:30:35;100308.94;;;15.15;81.79
76627;BME280;65519;53.230;10.390;2023-09-19T05:33:07;100304.25;;;15.16;82.12
76627;BME280;65519;53.230;10.390;2023-09-19T05:35:33;100303.88;;;15.09;82.38
76627;BME280;65519;53.230;10.390;2023-09-19T05:37:59;100317.41;;;15.05;82.93
76627;BME280;65519;53.230;10.390;2023-09-19T05:40:25;100319.16;;;15.01;83.12
76627;BME280;65519;53.230;10.390;2023-09-19T05:42:51;100316.09;;;15.03;82.78
76627;BME280;65519;53.230;10.390;2023-09-19T05:45:17;100319.75;;;14.98;83.04
76627;BME280;65519;53.230;10.390;2023-09-19T05:47:49;100332.38;;;14.99;83.72
76627;BME280;65519;53.230;10.390;2023-09-19T05:50:16;100322.00;;;14.96;84.11
76627;BME280;65519;53.230;10.390;2023-09-19T05:52:42;100325.47;;;14.88;84.71
76627;BME280;65519;53.230;10.390;2023-09-19T05:55:09;100331.16;;;14.91;84.97
76627;BME280;65519;53.230;10.390;2023-09-19T05:57:36;100323.53;;;14.88;85.28
76627;BME280;65519;53.230;10.390;2023-09-19T06:00:05;100318.34;;;14.87;85.54
76627;BME280;65519;53.230;10.390;2023-09-19T06:02:37;100324.03;;;14.90;86.16
76627;BME280;65519;53.230;10.390;2023-09-19T06:05:06;100336.31;;;14.93;85.79
76627;BME280;65519;53.230;10.390;2023-09-19T06:07:36;100325.25;;;14.98;85.12
76627;BME280;65519;53.230;10.390;2023-09-19T06:10:06;100325.47;;;15.02;85.56
76627;BME280;65519;53.230;10.390;2023-09-19T06:12:32;100333.47;;;14.98;84.89
76627;BME280;65519;53.230;10.390;2023-09-19T06:15:03;100340.09;;;14.97;85.05
76627;BME280;65519;53.230;10.390;2023-09-19T06:17:30;100334.97;;;15.04;84.72
76627;BME280;65519;53.230;10.390;2023-09-19T06:19:56;100323.41;;;15.07;84.50
76627;BME280;65519;53.230;10.390;2023-09-19T06:22:22;100340.75;;;15.16;83.38
76627;BME280;65519;53.230;10.390;2023-09-19T06:24:49;100342.69;;;15.16;83.44
76627;BME280;65519;53.230;10.390;2023-09-19T06:27:15;100341.19;;;15.23;83.33
76627;BME280;65519;53.230;10.390;2023-09-19T06:29:40;100340.22;;;15.28;83.17
76627;BME280;65519;53.230;10.390;2023-09-19T06:32:10;100338.31;;;15.28;82.83
76627;BME280;65519;53.230;10.390;2023-09-19T06:34:36;100352.44;;;15.36;82.29
76627;BME280;65519;53.230;10.390;2023-09-19T06:37:04;100338.28;;;15.42;81.61
76627;BME280;65519;53.230;10.390;2023-09-19T06:39:31;100345.56;;;15.47;81.55
76627;BME280;65519;53.230;10.390;2023-09-19T06:41:57;100352.59;;;15.53;80.48
76627;BME280;65519;53.230;10.390;2023-09-19T06:44:22;100328.72;;;15.40;80.41
76627;BME280;65519;53.230;10.390;2023-09-19T06:46:50;100362.75;;;15.66;80.31
76627;BME280;65519;53.230;10.390;2023-09-19T06:49:17;100363.06;;;15.64;80.38
76627;BME280;65519;53.230;10.390;2023-09-19T06:51:43;100341.59;;;15.66;80.28
76627;BME280;65519;53.230;10.390;2023-09-19T06:54:11;100357.31;;;15.75;80.56
76627;BME280;65519;53.230;10.390;2023-09-19T06:56:36;100360.38;;;15.73;80.16
76627;BME280;65519;53.230;10.390;2023-09-19T06:59:02;100351.00;;;15.74;79.53
76627;BME280;65519;53.230;10.390;2023-09-19T07:01:29;100353.16;;;15.77;78.92
76627;BME280;65519;53.230;10.390;2023-09-19T07:03:54;100348.78;;;15.76;77.61
76627;BME280;65519;53.230;10.390;2023-09-19T07:06:20;100362.38;;;15.81;77.79
76627;BME280;65519;53.230;10.390;2023-09-19T07:08:46;100351.88;;;15.83;77.70
76627;BME280;65519;53.230;10.390;2023-09-19T07:11:11;100350.88;;;15.79;77.30
76627;BME280;65519;53.230;10.390;2023-09-19T07:13:38;100347.56;;;15.91;76.81
76627;BME280;65519;53.230;10.390;2023-09-19T07:16:04;100351.28;;;15.86;75.43
76627;BME280;65519;53.230;10.390;2023-09-19T07:18:30;100364.06;;;15.91;75.14
76627;BME280;65519;53.230;10.390;2023-09-19T07:20:57;100359.56;;;15.95;74.59
76627;BME280;65519;53.230;10.390;2023-09-19T07:23:26;100361.41;;;15.99;75.09
76627;BME280;65519;53.230;10.390;2023-09-19T07:25:52;100368.03;;;15.98;75.16
76627;BME280;65519;53.230;10.390;2023-09-19T07:28:17;100374.25;;;15.90;74.89
76627;BME280;65519;53.230;10.390;2023-09-19T07:30:43;100370.06;;;15.93;74.60
76627;BME280;65519;53.230;10.390;2023-09-19T07:33:09;100382.56;;;15.99;74.18
76627;BME280;65519;53.230;10.390;2023-09-19T07:35:37;100389.94;;;15.90;75.65
76627;BME280;65519;53.230;10.390;2023-09-19T07:38:05;100382.00;;;15.88;74.35
76627;BME280;65519;53.230;10.390;2023-09-19T07:40:31;100379.13;;;15.93;74.63
76627;BME280;65519;53.230;10.390;2023-09-19T07:42:56;100401.72;;;15.90;74.37
76627;BME280;65519;53.230;10.390;2023-09-19T07:45:22;100418.31;;;15.99;74.12
76627;BME280;65519;53.230;10.390;2023-09-19T07:47:49;100409.72;;;16.23;73.28
76627;BME280;65519;53.230;10.390;2023-09-19T07:50:16;100400.81;;;16.17;73.14
76627;BME280;65519;53.230;10.390;2023-09-19T07:52:44;100415.97;;;16.37;72.48
76627;BME280;65519;53.230;10.390;2023-09-19T07:55:10;100409.25;;;16.43;71.92
76627;BME280;65519;53.230;10.390;2023-09-19T07:57:37;100408.84;;;16.36;71.46
76627;BME280;65519;53.230;10.390;2023-09-19T08:00:03;100419.94;;;16.22;71.92
76627;BME280;65519;53.230;10.390;2023-09-19T08:02:37;100415.22;;;16.45;71.33
76627;BME280;65519;53.230;10.390;2023-09-19T08:05:09;100429.63;;;16.42;72.01
76627;BME280;65519;53.230;10.390;2023-09-19T08:07:39;100415.78;;;16.33;71.07
76627;BME280;65519;53.230;10.390;2023-09-19T08:10:06;100433.31;;;16.37;70.27
76627;BME280;65519;53.230;10.390;2023-09-19T08:12:44;100417.59;;;16.38;69.40
76627;BME280;65519;53.230;10.390;2023-09-19T08:15:19;100403.09;;;16.46;69.57
76627;BME280;65519;53.230;10.390;2023-09-19T08:17:45;100412.94;;;16.69;68.39
76627;BME280;65519;53.230;10.390;2023-09-19T08:20:11;100405.53;;;16.78;67.54
76627;BME280;65519;53.230;10.390;2023-09-19T08:22:53;100412.94;;;16.69;67.34
76627;BME280;65519;53.230;10.390;2023-09-19T08:25:20;100407.00;;;16.76;66.98
76627;BME280;65519;53.230;10.390;2023-09-19T08:27:47;100416.84;;;16.68;67.81
76627;BME280;65519;53.230;10.390;2023-09-19T08:30:14;100417.06;;;16.58;67.23
76627;BME280;65519;53.230;10.390;2023-09-19T08:32:40;100407.63;;;16.73;67.31
76627;BME280;65519;53.230;10.390;2023-09-19T08:35:08;100416.41;;;16.75;65.76
76627;BME280;65519;53.230;10.390;2023-09-19T08:37:35;100424.22;;;16.90;66.70
76627;BME280;65519;53.230;10.390;2023-09-19T08:40:00;100411.91;;;16.88;66.81
76627;BME280;65519;53.230;10.390;2023-09-19T08:42:25;100427.44;;;16.84;67.17
76627;BME280;65519;53.230;10.390;2023-09-19T08:44:52;100425.19;;;16.86;66.81
76627;BME280;65519;53.230;10.390;2023-09-19T08:47:46;100425.50;;;16.84;66.09
76627;BME280;65519;53.230;10.390;2023-09-19T08:50:25;100420.00;;;16.84;65.11
76627;BME280;65519;53.230;10.390;2023-09-19T08:52:52;100420.63;;;16.81;64.35
76627;BME280;65519;53.230;10.390;2023-09-19T08:55:23;100431.00;;;16.84;64.86
76627;BME280;65519;53.230;10.390;2023-09-19T08:57:52;100437.81;;;16.87;65.09
76627;BME280;65519;53.230;10.390;2023-09-19T09:00:26;100431.25;;;17.05;64.03
76627;BME280;65519;53.230;10.390;2023-09-19T09:02:53;100423.94;;;17.00;63.08
76627;BME280;65519;53.230;10.390;2023-09-19T09:05:19;100417.22;;;17.24;63.01
76627;BME280;65519;53.230;10.390;2023-09-19T09:07:49;100421.59;;;17.33;62.43
76627;BME280;65519;53.230;10.390;2023-09-19T09:10:21;100415.47;;;17.36;61.79
76627;BME280;65519;53.230;10.390;2023-09-19T09:12:53;100427.19;;;17.50;61.21
76627;BME280;65519;53.230;10.390;2023-09-19T09:15:22;100421.50;;;17.56;61.55
76627;BME280;65519;53.230;10.390;2023-09-19T09:17:49;100416.00;;;17.64;60.94
76627;BME280;65519;53.230;10.390;2023-09-19T09:20:17;100425.75;;;17.79;60.36
76627;BME280;65519;53.230;10.390;2023-09-19T09:22:54;100428.53;;;17.79;61.44
76627;BME280;65519;53.230;10.390;2023-09-19T09:25:21;100428.19;;;17.89;61.34
76627;BME280;65519;53.230;10.390;2023-09-19T09:28:00;100433.72;;;17.89;59.67
76627;BME280;65519;53.230;10.390;2023-09-19T09:30:37;100425.13;;;17.91;59.55
76627;BME280;65519;53.230;10.390;2023-09-19T09:33:11;100428.69;;;17.91;59.74
76627;BME280;65519;53.230;10.390;2023-09-19T09:35:46;100431.44;;;17.91;59.88
76627;BME280;65519;53.230;10.390;2023-09-19T09:38:12;100420.44;;;17.82;60.07
76627;BME280;65519;53.230;10.390;2023-09-19T09:40:50;100438.75;;;18.13;58.98
76627;BME280;65519;53.230;10.390;2023-09-19T09:43:28;100426.06;;;18.20;57.31
76627;BME280;65519;53.230;10.390;2023-09-19T09:46:13;100430.47;;;18.13;56.22
76627;BME280;65519;53.230;10.390;2023-09-19T09:51:45;100423.97;;;18.17;56.54
76627;BME280;65519;53.230;10.390;2023-09-19T09:54:18;100434.38;;;18.12;55.42
76627;BME280;65519;53.230;10.390;2023-09-19T09:57:06;100436.47;;;18.06;54.86
76627;BME280;65519;53.230;10.390;2023-09-19T10:02:29;100431.28;;;18.22;55.47
76627;BME280;65519;53.230;10.390;2023-09-19T10:04:59;100455.63;;;18.20;56.46
76627;BME280;65519;53.230;10.390;2023-09-19T10:07:35;100436.63;;;18.01;56.67
76627;BME280;65519;53.230;10.390;2023-09-19T10:10:04;100431.28;;;18.22;57.35
76627;BME280;65519;53.230;10.390;2023-09-19T10:12:43;100438.41;;;18.32;56.32
76627;BME280;65519;53.230;10.390;2023-09-19T10:15:11;100435.94;;;18.39;56.09
76627;BME280;65519;53.230;10.390;2023-09-19T10:17:38;100454.00;;;18.28;56.19
76627;BME280;65519;53.230;10.390;2023-09-19T10:20:09;100443.13;;;18.22;56.39
76627;BME280;65519;53.230;10.390;2023-09-19T10:22:48;100447.66;;;18.18;55.93
76627;BME280;65519;53.230;10.390;2023-09-19T10:25:27;100454.66;;;18.24;57.18
76627;BME280;65519;53.230;10.390;2023-09-19T10:28:02;100467.00;;;18.27;57.17
76627;BME280;65519;53.230;10.390;2023-09-19T10:30:31;100466.00;;;18.14;57.19
76627;BME280;65519;53.230;10.390;2023-09-19T10:33:01;100462.44;;;18.22;57.40
76627;BME280;65519;53.230;10.390;2023-09-19T10:35:27;100458.88;;;18.22;56.64
76627;BME280;65519;53.230;10.390;2023-09-19T10:37:57;100461.78;;;18.26;57.29
76627;BME280;65519;53.230;10.390;2023-09-19T10:40:27;100464.72;;;18.12;56.11
76627;BME280;65519;53.230;10.390;2023-09-19T10:43:01;100478.00;;;18.10;55.48
76627;BME280;65519;53.230;10.390;2023-09-19T10:45:33;100471.34;;;18.11;54.99
76627;BME280;65519;53.230;10.390;2023-09-19T10:47:59;100472.50;;;18.01;56.45
76627;BME280;65519;53.230;10.390;2023-09-19T10:50:27;100464.38;;;18.13;55.91
76627;BME280;65519;53.230;10.390;2023-09-19T10:53:00;100473.31;;;18.28;55.42
76627;BME280;65519;53.230;10.390;2023-09-19T10:55:31;100466.44;;;18.51;55.29
76627;BME280;65519;53.230;10.390;2023-09-19T10:57:59;100462.88;;;18.68;55.06
76627;BME280;65519;53.230;10.390;2023-09-19T11:00:25;100458.84;;;18.48;54.44
76627;BME280;65519;53.230;10.390;2023-09-19T11:06:16;100463.06;;;18.19;54.71
76627;BME280;65519;53.230;10.390;2023-09-19T11:09:02;100473.47;;;18.31;55.52
76627;BME280;65519;53.230;10.390;2023-09-19T11:14:16;100465.50;;;18.47;53.52
76627;BME280;65519;53.230;10.390;2023-09-19T11:30:44;100478.66;;;18.58;53.91
76627;BME280;65519;53.230;10.390;2023-09-19T11:41:41;100473.59;;;18.52;54.69
76627;BME280;65519;53.230;10.390;2023-09-19T11:49:17;100462.75;;;18.38;55.06
76627;BME280;65519;53.230;10.390;2023-09-19T11:51:50;100462.59;;;18.35;56.10
76627;BME280;65519;53.230;10.390;2023-09-19T11:54:19;100461.94;;;18.38;55.02
76627;BME280;65519;53.230;10.390;2023-09-19T11:56:51;100455.56;;;18.54;54.57
76627;BME280;65519;53.230;10.390;2023-09-19T11:59:21;100463.38;;;18.61;54.17
76627;BME280;65519;53.230;10.390;2023-09-19T12:04:38;100453.44;;;18.77;53.21
76627;BME280;65519;53.230;10.390;2023-09-19T12:09:39;100456.53;;;18.76;53.08
76627;BME280;65519;53.230;10.390;2023-09-19T12:12:06;100449.69;;;18.82;53.62
76627;BME280;65519;53.230;10.390;2023-09-19T12:14:31;100443.94;;;18.95;53.15
76627;BME280;65519;53.230;10.390;2023-09-19T12:16:58;100447.06;;;18.85;52.88
76627;BME280;65519;53.230;10.390;2023-09-19T12:19:25;100445.50;;;18.67;52.60
76627;BME280;65519;53.230;10.390;2023-09-19T12:21:55;100450.84;;;18.72;52.67
76627;BME280;65519;53.230;10.390;2023-09-19T12:24:23;100453.06;;;18.87;53.43
76627;BME280;65519;53.230;10.390;2023-09-19T12:26:59;100438.97;;;18.72;52.91
76627;BME280;65519;53.230;10.390;2023-09-19T12:29:29;100436.94;;;18.98;53.11
76627;BME280;65519;53.230;10.390;2023-09-19T12:31:57;100439.09;;;18.92;52.78
76627;BME280;65519;53.230;10.390;2023-09-19T12:34:25;100441.78;;;19.10;52.46
76627;BME280;65519;53.230;10.390;2023-09-19T12:37:11;100434.69;;;19.29;52.44
76627;BME280;65519;53.230;10.390;2023-09-19T12:39:39;100446.56;;;19.30;51.87
76627;BME280;65519;53.230;10.390;2023-09-19T12:42:08;100430.41;;;19.41;51.21
76627;BME280;65519;53.230;10.390;2023-09-19T12:44:41;100446.97;;;19.41;51.24
76627;BME280;65519;53.230;10.390;2023-09-19T12:47:11;100431.50;;;19.48;51.16
76627;BME280;65519;53.230;10.390;2023-09-19T12:50:07;100444.22;;;19.41;50.86
76627;BME280;65519;53.230;10.390;2023-09-19T12:52:37;100431.59;;;19.60;50.11
76627;BME280;65519;53.230;10.390;2023-09-19T12:55:02;100440.78;;;19.44;50.91
76627;BME280;65519;53.230;10.390;2023-09-19T12:57:28;100445.88;;;19.33;50.34
76627;BME280;65519;53.230;10.390;2023-09-19T12:59:57;100451.69;;;19.40;50.26
76627;BME280;65519;53.230;10.390;2023-09-19T13:02:23;100442.41;;;19.45;49.95
76627;BME280;65519;53.230;10.390;2023-09-19T13:04:54;100436.47;;;19.63;50.50
76627;BME280;65519;53.230;10.390;2023-09-19T13:07:40;100438.09;;;19.64;49.60
76627;BME280;65519;53.230;10.390;2023-09-19T13:10:09;100442.66;;;19.81;49.62
76627;BME280;65519;53.230;10.390;2023-09-19T13:12:36;100442.75;;;19.43;49.44
76627;BME280;65519;53.230;10.390;2023-09-19T13:15:08;100439.72;;;19.27;50.00
76627;BME280;65519;53.230;10.390;2023-09-19T13:17:45;100447.13;;;19.74;49.93
76627;BME280;65519;53.230;10.390;2023-09-19T13:20:26;100448.44;;;19.47;49.14
76627;BME280;65519;53.230;10.390;2023-09-19T13:22:53;100438.47;;;19.54;49.34
76627;BME280;65519;53.230;10.390;2023-09-19T13:25:24;100456.16;;;19.83;49.14
76627;BME280;65519;53.230;10.390;2023-09-19T13:27:51;100438.31;;;20.34;47.96
76627;BME280;65519;53.230;10.390;2023-09-19T13:30:21;100424.56;;;20.25;48.46
76627;BME280;65519;53.230;10.390;2023-09-19T13:32:47;100418.13;;;20.66;47.64
76627;BME280;65519;53.230;10.390;2023-09-19T13:35:14;100406.94;;;20.63;48.12
76627;BME280;65519;53.230;10.390;2023-09-19T13:37:41;100431.91;;;20.75;46.96
76627;BME280;65519;53.230;10.390;2023-09-19T13:40:09;100406.66;;;20.56;47.10
76627;BME280;65519;53.230;10.390;2023-09-19T13:42:35;100416.94;;;20.55;47.68
76627;BME280;65519;53.230;10.390;2023-09-19T13:45:05;100412.06;;;20.97;47.04
76627;BME280;65519;53.230;10.390;2023-09-19T13:47:31;100422.00;;;20.20;48.19
76627;BME280;65519;53.230;10.390;2023-09-19T13:49:58;100414.38;;;20.38;47.71
76627;BME280;65519;53.230;10.390;2023-09-19T13:52:24;100412.75;;;20.94;47.31